Time;durP1;ratioP1;P1;durP2;ratioP2;P2;SDS_P1;SDS_P2;PMS_P1;PMS_P2;Temp;Humidity;BMP_temperature;BMP_pressure;BME280_temperature;BME280_humidity;BME280_pressure;Samples;Min_cycle;Max_cycle;Signal;HPM_P1;HPM_P2
2022/10/15 00:00:16;;;;;;;97.80;39.13;;;;;;;10.97;100.00;100528.44;2079699;28;32384;-76
2022/10/15 00:01:18;;;;;;;108.13;40.13;;;;;;;10.99;100.00;100523.91;2080494;28;20970;-76
2022/10/15 00:02:26;;;;;;;109.38;39.78;;;;;;;11.00;100.00;100522.94;2079432;28;33734;-75
2022/10/15 00:03:28;;;;;;;103.90;41.58;;;;;;;11.02;100.00;100521.13;2079175;28;38042;-76
2022/10/15 00:04:30;;;;;;;93.60;38.63;;;;;;;10.98;100.00;100520.34;2079070;28;31750;-77
2022/10/15 00:05:35;;;;;;;100.75;40.28;;;;;;;10.98;100.00;100527.47;2080270;28;20038;-75
2022/10/15 00:06:37;;;;;;;100.53;38.42;;;;;;;10.96;100.00;100518.63;2078954;28;37223;-76
2022/10/15 00:07:40;;;;;;;109.70;41.55;;;;;;;10.98;100.00;100517.66;2079154;28;27381;-76
2022/10/15 00:08:42;;;;;;;108.70;40.40;;;;;;;10.97;100.00;100518.59;2080359;28;20046;-75
2022/10/15 00:09:43;;;;;;;100.65;39.10;;;;;;;10.96;100.00;100516.81;2079121;28;32176;-74
2022/10/15 00:10:45;;;;;;;99.50;39.15;;;;;;;10.97;100.00;100513.22;2078806;28;39122;-75
2022/10/15 00:11:47;;;;;;;101.57;39.97;;;;;;;10.95;100.00;100511.53;2087431;28;33033;-75
2022/10/15 00:12:51;;;;;;;101.07;39.83;;;;;;;10.98;100.00;100511.41;2087305;28;32564;-75
2022/10/15 00:13:55;;;;;;;112.35;41.10;;;;;;;10.96;100.00;100507.91;2079464;28;38242;-75
2022/10/15 00:14:56;;;;;;;109.40;40.65;;;;;;;10.95;100.00;100508.84;2083210;28;29768;-75
2022/10/15 00:15:59;;;;;;;105.82;39.72;;;;;;;10.93;100.00;100506.22;2078809;28;42196;-74
2022/10/15 00:17:01;;;;;;;116.22;41.28;;;;;;;10.94;100.00;100507.94;2086831;28;37356;-76
2022/10/15 00:18:03;;;;;;;106.32;40.53;;;;;;;10.94;100.00;100507.09;2087150;28;39137;-74
2022/10/15 00:19:05;;;;;;;90.30;36.13;;;;;;;10.91;100.00;100509.84;2087327;28;31243;-76
2022/10/15 00:20:09;;;;;;;106.60;39.72;;;;;;;10.93;100.00;100510.69;2078765;28;36655;-75
2022/10/15 00:21:15;;;;;;;106.22;39.08;;;;;;;10.93;100.00;100516.03;2087342;28;30881;-74
2022/10/15 00:22:17;;;;;;;103.75;39.45;;;;;;;10.91;100.00;100508.06;2087288;28;31064;-75
2022/10/15 00:23:18;;;;;;;103.47;39.05;;;;;;;10.92;100.00;100509.81;2087890;28;34519;-75
2022/10/15 00:24:20;;;;;;;110.80;41.95;;;;;;;10.93;100.00;100506.22;2095358;28;37156;-75
2022/10/15 00:25:22;;;;;;;133.00;43.95;;;;;;;10.95;100.00;100508.84;2088011;28;30662;-77
2022/10/15 00:26:29;;;;;;;108.78;40.72;;;;;;;10.93;100.00;100516.03;2087385;28;33375;-76
2022/10/15 00:27:30;;;;;;;116.30;42.15;;;;;;;10.93;100.00;100514.25;2088501;28;27728;-76
2022/10/15 00:28:32;;;;;;;110.40;39.50;;;;;;;10.92;100.00;100509.81;2087372;28;20053;-76
2022/10/15 00:29:35;;;;;;;102.28;39.40;;;;;;;10.89;100.00;100509.91;2087569;28;20037;-76
2022/10/15 00:30:36;;;;;;;117.95;43.17;;;;;;;10.93;100.00;100516.94;2088380;28;23685;-76
2022/10/15 00:31:38;;;;;;;123.10;43.05;;;;;;;10.93;100.00;100522.28;2087636;28;31663;-76
2022/10/15 00:32:44;;;;;;;121.30;41.03;;;;;;;10.94;100.00;100515.13;2088314;28;20972;-76
2022/10/15 00:33:49;;;;;;;111.35;42.60;;;;;;;10.94;100.00;100509.75;2088027;28;32844;-77
2022/10/15 00:34:51;;;;;;;107.72;39.30;;;;;;;10.92;100.00;100514.28;2087676;28;37416;-76
2022/10/15 00:36:06;;;;;;;128.73;43.92;;;;;;;10.96;100.00;100511.44;2088248;28;20560;-76
2022/10/15 00:37:09;;;;;;;134.32;43.08;;;;;;;10.94;100.00;100512.44;2088137;28;20041;-76
2022/10/15 00:38:10;;;;;;;136.43;44.53;;;;;;;10.95;100.00;100520.44;2087041;28;33959;-77
2022/10/15 00:39:12;;;;;;;137.35;43.28;;;;;;;10.93;100.00;100516.94;2087063;28;20049;-77
2022/10/15 00:40:14;;;;;;;138.00;47.05;;;;;;;10.98;100.00;100520.34;2079250;28;20034;-77
2022/10/15 00:41:24;;;;;;;133.35;45.45;;;;;;;10.98;100.00;100519.44;2079618;28;20049;-74
2022/10/15 00:42:26;;;;;;;137.63;46.65;;;;;;;11.01;100.00;100525.59;2088236;28;20796;-76
2022/10/15 00:43:55;;;;;;;130.80;45.13;;;;;;;10.99;100.00;100515.84;2088239;28;20926;-76
2022/10/15 00:44:58;;;;;;;139.00;45.60;;;;;;;11.01;100.00;100514.88;2085368;28;24739;-76
2022/10/15 00:46:00;;;;;;;123.18;42.90;;;;;;;10.99;100.00;100516.72;2088206;28;20042;-76
2022/10/15 00:47:34;;;;;;;128.43;45.83;;;;;;;11.00;100.00;100510.47;2088222;28;30523;-76
2022/10/15 00:48:36;;;;;;;131.18;45.92;;;;;;;11.03;100.00;100517.50;2087235;28;20053;-76
2022/10/15 00:50:04;;;;;;;140.00;45.80;;;;;;;10.99;100.00;100516.72;2090190;28;20087;-76
2022/10/15 00:51:05;;;;;;;144.52;48.28;;;;;;;10.96;100.00;100511.44;2078843;28;35848;-76
2022/10/15 00:52:12;;;;;;;136.35;46.22;;;;;;;10.95;100.00;100515.06;2079727;28;27316;-76
2022/10/15 00:53:14;;;;;;;162.43;47.50;;;;;;;10.98;100.00;100523.03;2079765;28;29498;-76
2022/10/15 00:54:16;;;;;;;137.13;46.35;;;;;;;10.96;100.00;100515.94;2078904;28;23728;-76
2022/10/15 00:55:28;;;;;;;148.75;48.22;;;;;;;10.98;100.00;100515.00;2087287;28;34537;-76
2022/10/15 00:56:31;;;;;;;146.77;48.53;;;;;;;10.94;100.00;100516.00;2087629;28;20909;-76
2022/10/15 00:57:33;;;;;;;148.05;48.28;;;;;;;10.91;100.00;100513.44;2088673;28;30604;-76
2022/10/15 00:58:35;;;;;;;156.75;48.00;;;;;;;10.91;100.00;100516.09;2078908;28;20050;-76
2022/10/15 00:59:43;;;;;;;159.07;49.17;;;;;;;10.89;100.00;100520.59;2079529;28;27116;-76
2022/10/15 01:00:44;;;;;;;148.45;46.85;;;;;;;10.88;100.00;100522.41;2087094;28;33404;-76
2022/10/15 01:01:46;;;;;;;157.18;48.58;;;;;;;10.87;100.00;100522.47;2088693;28;20041;-76
2022/10/15 01:02:48;;;;;;;141.40;47.40;;;;;;;10.86;100.00;100510.88;2087549;28;20171;-76
2022/10/15 01:03:53;;;;;;;136.15;45.45;;;;;;;10.85;100.00;100524.31;2087337;28;21006;-77
2022/10/15 01:04:55;;;;;;;133.18;45.33;;;;;;;10.85;100.00;100513.59;2088122;28;20127;-77
2022/10/15 01:05:57;;;;;;;150.18;48.30;;;;;;;10.87;100.00;100520.69;2087296;28;32393;-77
2022/10/15 01:07:00;;;;;;;144.10;47.97;;;;;;;10.88;100.00;100519.75;2079074;28;32281;-77
2022/10/15 01:08:03;;;;;;;151.63;48.47;;;;;;;10.87;100.00;100520.69;2087591;28;20046;-77
2022/10/15 01:09:05;;;;;;;152.30;49.40;;;;;;;10.89;100.00;100520.59;2087666;28;30501;-77
2022/10/15 01:10:09;;;;;;;159.77;49.22;;;;;;;10.88;100.00;100519.75;2079146;28;28327;-77
2022/10/15 01:11:37;;;;;;;154.90;50.78;;;;;;;10.91;100.00;100526.81;2071815;28;20113;-77
2022/10/15 01:12:55;;;;;;;173.73;51.63;;;;;;;10.92;100.00;100517.84;2082258;28;30634;-76
2022/10/15 01:14:39;;;;;;;171.48;51.28;;;;;;;10.95;100.00;100515.06;2081645;28;21281;-77
2022/10/15 01:16:01;;;;;;;160.52;50.22;;;;;;;10.96;100.00;100506.09;2088075;28;20037;-77
2022/10/15 01:17:33;;;;;;;176.00;51.40;;;;;;;10.98;100.00;100515.00;2088038;28;24143;-77
2022/10/15 01:19:05;;;;;;;183.75;52.47;;;;;;;11.00;100.00;100510.47;2087204;28;20859;-77
2022/10/15 01:20:48;;;;;;;183.52;53.63;;;;;;;11.02;100.00;100516.63;2083841;28;20096;-77
2022/10/15 01:22:03;;;;;;;173.45;50.28;;;;;;;11.02;100.00;100503.25;2088558;28;20033;-76
2022/10/15 01:23:59;;;;;;;165.82;49.53;;;;;;;11.02;100.00;100505.91;2087360;28;30782;-76
2022/10/15 01:25:13;;;;;;;179.65;51.13;;;;;;;11.05;100.00;100500.47;2087170;28;20045;-76
2022/10/15 01:26:40;;;;;;;153.48;46.78;;;;;;;11.03;100.00;100504.97;2080668;28;20050;-75
2022/10/15 01:27:53;;;;;;;163.73;48.15;;;;;;;11.04;100.00;100504.06;2082885;28;20049;-77
2022/10/15 01:29:28;;;;;;;186.30;52.95;;;;;;;11.05;100.00;100504.94;2085846;28;25956;-77
2022/10/15 01:30:44;;;;;;;194.27;51.30;;;;;;;11.06;100.00;100502.22;2085996;28;33138;-75
2022/10/15 01:32:24;;;;;;;184.55;53.58;;;;;;;11.07;100.00;100508.44;2085522;28;20100;-76
2022/10/15 01:33:47;;;;;;;167.38;49.25;;;;;;;11.08;100.00;100507.53;2054848;28;20044;-75
2022/10/15 01:35:25;;;;;;;176.35;50.55;;;;;;;11.07;100.00;100503.97;2080705;28;20938;-76
2022/10/15 01:36:40;;;;;;;192.68;50.55;;;;;;;11.09;100.00;100511.97;2087311;28;20977;-76
2022/10/15 01:38:23;;;;;;;200.93;53.25;;;;;;;11.09;100.00;100506.63;2088861;28;20038;-75
2022/10/15 01:39:38;;;;;;;186.25;52.10;;;;;;;11.10;100.00;100497.63;2085639;28;20154;-76
2022/10/15 01:40:57;;;;;;;193.63;51.72;;;;;;;11.10;100.00;100508.34;2082083;28;20050;-78
2022/10/15 01:42:11;;;;;;;201.00;52.20;;;;;;;11.10;100.00;100496.75;2082791;28;20050;-78
2022/10/15 01:43:21;;;;;;;174.88;49.67;;;;;;;11.09;100.00;100498.56;2082451;28;20085;-77
2022/10/15 01:44:55;;;;;;;191.65;50.45;;;;;;;11.11;100.00;100506.53;2087354;28;20175;-78
2022/10/15 01:46:28;;;;;;;196.80;51.10;;;;;;;11.11;100.00;100498.50;2071588;28;20245;-78
2022/10/15 01:47:52;;;;;;;188.98;49.08;;;;;;;11.12;100.00;100494.91;2080678;28;20142;-77
2022/10/15 01:48:57;;;;;;;194.52;49.35;;;;;;;11.11;100.00;100499.41;2070853;28;20046;-78
2022/10/15 01:50:02;;;;;;;188.13;48.60;;;;;;;11.12;100.00;100502.94;2073740;28;33306;-78
2022/10/15 01:51:09;;;;;;;194.20;49.20;;;;;;;11.13;100.00;100499.34;2081051;28;20046;-76
2022/10/15 01:52:22;;;;;;;190.50;48.92;;;;;;;11.12;100.00;100500.25;2079808;28;20148;-75
2022/10/15 01:53:28;;;;;;;196.15;50.80;;;;;;;11.13;100.00;100496.66;2089798;28;35884;-76
2022/10/15 01:54:30;;;;;;;185.80;47.95;;;;;;;11.12;100.00;100501.13;2088451;28;20861;-78
2022/10/15 01:55:36;;;;;;;197.32;49.88;;;;;;;11.12;100.00;100497.59;2088735;28;21019;-75
2022/10/15 01:56:39;;;;;;;201.68;51.10;;;;;;;11.13;100.00;100497.53;2072455;28;20160;-76
2022/10/15 01:57:43;;;;;;;213.48;52.15;;;;;;;11.14;100.00;100495.72;2065527;28;20101;-77
2022/10/15 01:58:51;;;;;;;189.30;49.03;;;;;;;11.14;100.00;100495.72;2080545;28;20046;-75
2022/10/15 01:59:54;;;;;;;207.38;50.30;;;;;;;11.13;100.00;100497.53;2066207;28;20863;-76
2022/10/15 02:00:58;;;;;;;194.98;46.33;;;;;;;11.14;100.00;100491.22;2081655;28;20172;-77
2022/10/15 02:02:00;;;;;;;195.00;49.70;;;;;;;11.14;100.00;100493.91;2080489;28;20704;-76
2022/10/15 02:03:03;;;;;;;200.95;48.47;;;;;;;11.14;100.00;100491.22;2080706;28;20068;-76
2022/10/15 02:04:19;;;;;;;188.15;47.75;;;;;;;11.15;100.00;100494.81;2080556;28;21713;-76
2022/10/15 02:05:34;;;;;;;196.43;48.30;;;;;;;11.15;100.00;100489.47;2065599;28;31586;-76
2022/10/15 02:06:43;;;;;;;197.27;47.58;;;;;;;11.15;100.00;100487.66;2077060;28;20051;-76
2022/10/15 02:08:24;;;;;;;188.13;46.08;;;;;;;11.15;100.00;100486.78;2088872;28;20030;-77
2022/10/15 02:09:44;;;;;;;209.35;48.50;;;;;;;11.15;100.00;100486.78;2075039;28;20048;-76
2022/10/15 02:10:59;;;;;;;201.45;48.47;;;;;;;11.15;100.00;100478.75;2080837;28;20045;-76
2022/10/15 02:12:21;;;;;;;186.32;46.63;;;;;;;11.16;100.00;100485.84;2080693;28;20088;-77
2022/10/15 02:13:32;;;;;;;211.98;48.85;;;;;;;11.16;100.00;100478.69;2079838;28;41089;-77
2022/10/15 02:14:51;;;;;;;199.18;48.15;;;;;;;11.15;100.00;100481.41;2082063;28;20117;-77
2022/10/15 02:16:01;;;;;;;198.45;47.55;;;;;;;11.16;100.00;100481.38;2080346;28;20042;-77
2022/10/15 02:17:09;;;;;;;212.43;48.97;;;;;;;11.16;100.00;100484.06;2076209;28;20042;-78
2022/10/15 02:18:38;;;;;;;195.95;49.67;;;;;;;11.17;100.00;100487.59;2087775;28;28909;-75
2022/10/15 02:19:59;;;;;;;214.77;49.05;;;;;;;11.16;100.00;100481.38;2087876;28;20046;-77
2022/10/15 02:21:31;;;;;;;197.07;47.17;;;;;;;11.17;100.00;100476.88;2066009;28;20059;-77
2022/10/15 02:22:48;;;;;;;193.63;47.97;;;;;;;11.16;100.00;100475.13;2076318;28;20046;-75
2022/10/15 02:24:14;;;;;;;189.20;48.25;;;;;;;11.17;100.00;100479.56;2078279;28;20183;-78
2022/10/15 02:25:24;;;;;;;212.73;49.22;;;;;;;11.18;100.00;100484.88;2076593;28;20042;-78
2022/10/15 02:26:29;;;;;;;215.93;49.70;;;;;;;11.17;100.00;100479.56;2072762;28;33137;-76
2022/10/15 02:27:32;;;;;;;200.65;50.20;;;;;;;11.19;100.00;100475.88;2073686;28;21358;-76
2022/10/15 02:28:41;;;;;;;208.25;50.40;;;;;;;11.17;100.00;100483.09;2087708;28;20088;-76
2022/10/15 02:29:45;;;;;;;200.65;48.17;;;;;;;11.17;100.00;100472.38;2088366;28;20038;-77
2022/10/15 02:30:52;;;;;;;205.18;50.47;;;;;;;11.17;100.00;100476.88;2081644;28;20054;-76
2022/10/15 02:32:01;;;;;;;201.82;49.40;;;;;;;11.15;100.00;100474.25;2088502;28;20880;-76
2022/10/15 02:33:06;;;;;;;207.10;50.67;;;;;;;11.17;100.00;100479.56;2088277;28;20871;-76
2022/10/15 02:34:13;;;;;;;208.93;49.70;;;;;;;11.15;100.00;100479.59;2081217;28;25178;-77
2022/10/15 02:35:15;;;;;;;207.32;50.05;;;;;;;11.16;100.00;100475.13;2081022;28;20038;-77
2022/10/15 02:36:20;;;;;;;197.50;50.30;;;;;;;11.14;100.00;100472.47;2088765;28;20036;-76
2022/10/15 02:37:27;;;;;;;190.90;48.92;;;;;;;11.14;100.00;100476.97;2080148;28;23905;-77
2022/10/15 02:38:31;;;;;;;191.32;48.95;;;;;;;11.15;100.00;100476.06;2081074;28;20922;-76
2022/10/15 02:39:38;;;;;;;180.65;47.20;;;;;;;11.16;100.00;100475.13;2080252;28;31290;-76
2022/10/15 02:40:43;;;;;;;172.18;45.38;;;;;;;11.15;100.00;100476.94;2088851;28;23430;-75
2022/10/15 02:41:46;;;;;;;205.02;50.45;;;;;;;11.15;100.00;100478.75;2088922;28;23749;-76
2022/10/15 02:42:50;;;;;;;201.30;50.83;;;;;;;11.17;100.00;100479.56;2089379;28;20127;-77
2022/10/15 02:43:52;;;;;;;201.68;51.63;;;;;;;11.17;100.00;100476.88;2088238;28;20034;-76
2022/10/15 02:44:54;;;;;;;199.50;50.28;;;;;;;11.17;100.00;100471.53;2080123;28;20053;-77
2022/10/15 02:45:58;;;;;;;200.70;49.63;;;;;;;11.19;100.00;100480.38;2079927;28;20042;-77
2022/10/15 02:47:01;;;;;;;197.73;50.58;;;;;;;11.19;100.00;100477.69;2088343;28;20046;-78
2022/10/15 02:48:03;;;;;;;191.82;50.08;;;;;;;11.20;100.00;100474.09;2088458;28;20033;-76
2022/10/15 02:49:05;;;;;;;191.65;50.90;;;;;;;11.21;100.00;100475.84;2087557;28;29724;-76
2022/10/15 02:50:07;;;;;;;180.43;49.30;;;;;;;11.21;100.00;100473.16;2088368;28;20895;-77
2022/10/15 02:51:09;;;;;;;192.48;50.33;;;;;;;11.22;100.00;100474.94;2088496;28;20029;-76
2022/10/15 02:52:12;;;;;;;197.02;52.55;;;;;;;11.21;100.00;100479.38;2080203;28;20041;-78
2022/10/15 02:53:15;;;;;;;189.55;51.80;;;;;;;11.21;100.00;100473.16;2080675;28;20838;-77
2022/10/15 02:54:17;;;;;;;202.82;53.53;;;;;;;11.22;100.00;100474.94;2079999;28;20853;-77
2022/10/15 02:55:21;;;;;;;190.88;50.75;;;;;;;11.22;100.00;100470.44;2080643;28;20030;-77
2022/10/15 02:56:25;;;;;;;191.85;51.42;;;;;;;11.21;100.00;100470.47;2088378;28;20048;-76
2022/10/15 02:57:27;;;;;;;193.15;52.60;;;;;;;11.21;100.00;100470.47;2088178;28;20172;-77
2022/10/15 02:58:29;;;;;;;180.93;51.13;;;;;;;11.21;100.00;100462.44;2087846;28;20042;-77
2022/10/15 02:59:32;;;;;;;182.38;51.60;;;;;;;11.21;100.00;100459.75;2074627;28;20925;-76
2022/10/15 03:00:34;;;;;;;176.95;49.92;;;;;;;11.20;100.00;100466.94;2087959;28;20891;-77
2022/10/15 03:01:36;;;;;;;178.57;50.90;;;;;;;11.21;100.00;100468.66;2079981;28;20042;-76
2022/10/15 03:02:40;;;;;;;183.00;51.83;;;;;;;11.20;100.00;100474.09;2080504;28;20049;-76
2022/10/15 03:03:42;;;;;;;180.15;49.95;;;;;;;11.21;100.00;100470.47;2087819;28;20042;-76
2022/10/15 03:04:46;;;;;;;187.15;51.10;;;;;;;11.19;100.00;100465.16;2088399;28;20041;-76
2022/10/15 03:05:48;;;;;;;170.63;50.00;;;;;;;11.17;100.00;100467.03;2079917;28;20089;-76
2022/10/15 03:06:53;;;;;;;171.55;50.53;;;;;;;11.19;100.00;100472.34;2080553;28;20207;-76
2022/10/15 03:07:58;;;;;;;166.95;50.33;;;;;;;11.17;100.00;100469.72;2087834;28;27018;-76
2022/10/15 03:09:01;;;;;;;180.73;50.92;;;;;;;11.18;100.00;100467.91;2080209;28;20188;-76
2022/10/15 03:10:05;;;;;;;161.43;48.47;;;;;;;11.19;100.00;100464.31;2064343;28;20078;-77
2022/10/15 03:11:07;;;;;;;172.65;50.85;;;;;;;11.18;100.00;100462.53;2072400;28;20965;-77
2022/10/15 03:12:10;;;;;;;169.82;49.28;;;;;;;11.17;100.00;100469.72;2071939;28;20050;-78
2022/10/15 03:13:12;;;;;;;169.18;48.83;;;;;;;11.17;100.00;100469.72;2072161;28;20046;-78
2022/10/15 03:14:20;;;;;;;160.85;49.35;;;;;;;11.16;100.00;100465.28;2087941;28;20060;-77
2022/10/15 03:15:25;;;;;;;163.52;49.60;;;;;;;11.16;100.00;100464.41;2088435;28;20038;-77
2022/10/15 03:16:26;;;;;;;157.73;49.20;;;;;;;11.15;100.00;100463.53;2086933;28;20046;-77
2022/10/15 03:17:28;;;;;;;159.75;48.85;;;;;;;11.16;100.00;100464.41;2079376;28;20046;-77
2022/10/15 03:18:30;;;;;;;162.80;49.42;;;;;;;11.16;100.00;100467.06;2087524;28;20046;-77
2022/10/15 03:19:31;;;;;;;174.55;49.15;;;;;;;11.16;100.00;100462.63;2095735;28;24599;-77
2022/10/15 03:20:33;;;;;;;161.90;49.90;;;;;;;11.16;100.00;100465.28;2079030;28;21284;-77
2022/10/15 03:21:35;;;;;;;162.80;48.92;;;;;;;11.17;100.00;100471.53;2071338;28;20973;-77
2022/10/15 03:22:43;;;;;;;154.40;49.53;;;;;;;11.16;100.00;100476.00;2088408;28;20048;-78
2022/10/15 03:23:45;;;;;;;157.48;48.80;;;;;;;11.17;100.00;100471.53;2078986;28;22117;-77
2022/10/15 03:24:53;;;;;;;162.25;48.60;;;;;;;11.17;100.00;100464.34;2065262;28;21001;-78
2022/10/15 03:26:01;;;;;;;160.50;49.58;;;;;;;11.15;100.00;100474.25;2065837;28;20113;-77
2022/10/15 03:27:03;;;;;;;164.60;50.10;;;;;;;11.16;100.00;100472.44;2072314;28;20038;-75
2022/10/15 03:28:07;;;;;;;160.40;50.40;;;;;;;11.15;100.00;100470.69;2087705;28;20097;-76
2022/10/15 03:29:13;;;;;;;148.40;47.63;;;;;;;11.15;100.00;100465.34;2087278;28;21045;-77
2022/10/15 03:30:24;;;;;;;165.27;48.83;;;;;;;11.15;100.00;100468.03;2080544;28;20089;-76
2022/10/15 03:31:26;;;;;;;168.50;52.03;;;;;;;11.14;100.00;100469.81;2086140;28;20096;-77
2022/10/15 03:32:33;;;;;;;158.13;49.17;;;;;;;11.15;100.00;100468.03;2080921;28;20041;-77
2022/10/15 03:33:36;;;;;;;152.52;48.97;;;;;;;11.16;100.00;100465.28;2079735;28;20038;-76
2022/10/15 03:34:38;;;;;;;156.80;47.88;;;;;;;11.14;100.00;100464.44;2079904;28;20045;-75
2022/10/15 03:35:40;;;;;;;153.90;49.50;;;;;;;11.15;100.00;100462.66;2088131;28;20934;-76
2022/10/15 03:36:43;;;;;;;151.73;49.50;;;;;;;11.15;100.00;100468.03;2087813;28;20049;-76
2022/10/15 03:37:46;;;;;;;146.32;50.70;;;;;;;11.13;100.00;100469.88;2080118;28;20049;-76
2022/10/15 03:38:47;;;;;;;144.50;49.08;;;;;;;11.11;100.00;100464.56;2079811;28;20053;-75
2022/10/15 03:39:49;;;;;;;148.48;47.63;;;;;;;11.07;100.00;100461.13;2087958;28;20038;-76
2022/10/15 03:40:52;;;;;;;138.02;46.50;;;;;;;11.10;100.00;100472.66;2088261;28;20113;-75
2022/10/15 03:42:05;;;;;;;151.30;47.53;;;;;;;11.11;100.00;100469.94;2087914;28;20219;-76
2022/10/15 03:43:18;;;;;;;143.90;47.35;;;;;;;11.10;100.00;100468.16;2088491;28;20042;-76
2022/10/15 03:44:20;;;;;;;144.68;46.80;;;;;;;11.08;100.00;100461.97;2087528;28;20045;-75
2022/10/15 03:45:33;;;;;;;133.27;46.78;;;;;;;11.08;100.00;100470.88;2081305;28;20053;-76
2022/10/15 03:46:47;;;;;;;137.77;47.60;;;;;;;11.05;100.00;100468.31;2081481;28;20038;-77
2022/10/15 03:47:52;;;;;;;132.25;45.60;;;;;;;11.06;100.00;100461.16;2087876;28;20046;-76
2022/10/15 03:48:56;;;;;;;142.30;46.35;;;;;;;11.04;100.00;100458.53;2079470;28;28518;-76
2022/10/15 03:49:59;;;;;;;140.18;48.50;;;;;;;11.05;100.00;100468.31;2088301;28;20902;-77
2022/10/15 03:51:00;;;;;;;133.02;45.03;;;;;;;11.04;100.00;100461.19;2087140;28;20041;-75
2022/10/15 03:52:05;;;;;;;137.98;46.08;;;;;;;11.04;100.00;100463.88;2079464;28;20885;-77
2022/10/15 03:53:07;;;;;;;146.82;47.55;;;;;;;11.03;100.00;100466.59;2087968;28;21385;-76
2022/10/15 03:54:09;;;;;;;137.20;47.25;;;;;;;11.02;100.00;100465.75;2088081;28;20842;-77
2022/10/15 03:55:18;;;;;;;134.57;46.17;;;;;;;11.03;100.00;100463.94;2081218;28;20230;-77
2022/10/15 03:56:20;;;;;;;142.55;48.28;;;;;;;11.04;100.00;100463.00;2071166;28;20904;-76
2022/10/15 03:57:22;;;;;;;144.90;47.55;;;;;;;11.02;100.00;100457.69;2079781;28;20049;-77
2022/10/15 03:58:29;;;;;;;129.52;44.47;;;;;;;11.04;100.00;100460.34;2073318;28;20101;-77
2022/10/15 03:59:34;;;;;;;142.45;47.75;;;;;;;11.02;100.00;100456.84;2079464;28;20919;-77
2022/10/15 04:00:41;;;;;;;145.82;48.47;;;;;;;10.99;100.00;100460.47;2088399;28;20889;-77
2022/10/15 04:01:44;;;;;;;141.10;46.65;;;;;;;10.99;100.00;100465.81;2088429;28;20199;-76
2022/10/15 04:02:46;;;;;;;136.68;46.47;;;;;;;10.99;100.00;100460.47;2079422;28;20034;-77
2022/10/15 04:03:58;;;;;;;138.50;46.05;;;;;;;10.98;100.00;100452.47;2081316;28;20037;-77
2022/10/15 04:05:00;;;;;;;142.18;46.60;;;;;;;10.98;100.00;100460.50;2087735;28;20160;-76
2022/10/15 04:06:04;;;;;;;145.18;45.90;;;;;;;10.97;100.00;100448.94;2079285;28;20042;-76
2022/10/15 04:07:06;;;;;;;136.73;44.72;;;;;;;10.97;100.00;100456.09;2079927;28;21050;-76
2022/10/15 04:08:08;;;;;;;145.52;47.58;;;;;;;10.96;100.00;100457.00;2079730;28;20184;-76
2022/10/15 04:09:14;;;;;;;136.00;45.38;;;;;;;10.98;100.00;100458.75;2087974;28;20823;-76
2022/10/15 04:10:20;;;;;;;143.20;46.58;;;;;;;10.99;100.00;100464.97;2078632;28;25998;-77
2022/10/15 04:11:21;;;;;;;145.48;46.55;;;;;;;10.98;100.00;100458.75;2088048;28;21255;-78
2022/10/15 04:12:33;;;;;;;143.00;45.75;;;;;;;10.96;100.00;100457.00;2080961;28;20154;-76
2022/10/15 04:13:36;;;;;;;141.88;45.83;;;;;;;10.97;100.00;100461.47;2079657;28;20120;-76
2022/10/15 04:14:38;;;;;;;143.90;45.35;;;;;;;10.95;100.00;100458.81;2087744;28;20030;-75
2022/10/15 04:15:40;;;;;;;145.15;46.20;;;;;;;10.95;100.00;100461.50;2079237;28;24861;-76
2022/10/15 04:16:47;;;;;;;140.38;44.58;;;;;;;10.93;100.00;100449.97;2080244;28;20038;-77
2022/10/15 04:17:55;;;;;;;144.68;43.30;;;;;;;10.93;100.00;100457.09;2081074;28;20049;-76
2022/10/15 04:19:00;;;;;;;141.60;44.83;;;;;;;10.93;100.00;100457.09;2088435;28;20152;-76
2022/10/15 04:20:02;;;;;;;144.40;44.78;;;;;;;10.93;100.00;100458.00;2086634;28;20042;-76
2022/10/15 04:21:03;;;;;;;143.57;45.72;;;;;;;10.93;100.00;100452.66;2079656;28;21694;-76
2022/10/15 04:22:06;;;;;;;140.98;44.38;;;;;;;10.92;100.00;100460.72;2079737;28;20054;-76
2022/10/15 04:23:16;;;;;;;142.80;44.20;;;;;;;10.92;100.00;100461.59;2080360;28;20097;-74
2022/10/15 04:24:38;;;;;;;139.65;42.80;;;;;;;10.91;100.00;100454.50;2087707;28;20042;-76
2022/10/15 04:25:41;;;;;;;150.55;45.67;;;;;;;10.91;100.00;100459.88;2087876;28;20042;-76
2022/10/15 04:26:43;;;;;;;137.20;42.03;;;;;;;10.91;100.00;100459.88;2079480;28;20057;-76
2022/10/15 04:27:45;;;;;;;147.70;45.25;;;;;;;10.89;100.00;100453.66;2079901;28;20081;-77
2022/10/15 04:28:51;;;;;;;144.25;44.45;;;;;;;10.88;100.00;100460.81;2087395;28;20962;-77
2022/10/15 04:29:54;;;;;;;136.05;42.92;;;;;;;10.89;100.00;100457.22;2079545;28;20065;-76
2022/10/15 04:30:58;;;;;;;142.32;44.25;;;;;;;10.88;100.00;100454.59;2079526;28;20203;-76
2022/10/15 04:32:03;;;;;;;146.23;45.05;;;;;;;10.85;100.00;100454.69;2079661;28;20172;-76
2022/10/15 04:33:05;;;;;;;145.35;44.03;;;;;;;10.85;100.00;100460.03;2079684;28;20072;-76
2022/10/15 04:34:07;;;;;;;145.02;44.75;;;;;;;10.85;100.00;100463.59;2087641;28;20108;-76
2022/10/15 04:35:12;;;;;;;147.32;45.45;;;;;;;10.85;100.00;100462.72;2079433;28;20041;-75
2022/10/15 04:36:39;;;;;;;144.88;43.85;;;;;;;10.85;100.00;100466.25;2087773;28;20120;-78
2022/10/15 04:37:47;;;;;;;155.00;45.45;;;;;;;10.86;100.00;100464.47;2087380;28;20123;-76
2022/10/15 04:38:49;;;;;;;163.63;45.70;;;;;;;10.86;100.00;100459.13;2088059;28;20037;-77
2022/10/15 04:40:00;;;;;;;150.68;44.80;;;;;;;10.87;100.00;100466.22;2087648;28;20087;-76
2022/10/15 04:41:06;;;;;;;157.02;46.00;;;;;;;10.85;100.00;100463.59;2079165;28;20148;-75
2022/10/15 04:42:30;;;;;;;141.35;43.60;;;;;;;10.86;100.00;100456.44;2082943;28;20049;-76
2022/10/15 04:43:32;;;;;;;159.15;46.20;;;;;;;10.84;100.00;100461.84;2088150;28;20938;-77
2022/10/15 04:44:39;;;;;;;153.15;45.03;;;;;;;10.84;100.00;100460.97;2087536;28;20105;-77
2022/10/15 04:45:40;;;;;;;152.90;45.40;;;;;;;10.84;100.00;100461.84;2086550;28;20092;-77
2022/10/15 04:46:43;;;;;;;151.02;47.05;;;;;;;10.84;100.00;100458.31;2079622;28;20049;-77
2022/10/15 04:48:09;;;;;;;161.50;45.60;;;;;;;10.84;100.00;100466.34;2073884;28;20113;-76
2022/10/15 04:49:10;;;;;;;158.00;45.08;;;;;;;10.84;100.00;100463.66;2082667;28;20210;-77
2022/10/15 04:50:15;;;;;;;154.40;44.83;;;;;;;10.84;100.00;100469.00;2087193;28;20049;-77
2022/10/15 04:51:40;;;;;;;150.10;45.08;;;;;;;10.82;100.00;100470.84;2079285;28;21021;-76
2022/10/15 04:52:48;;;;;;;149.38;44.33;;;;;;;10.83;100.00;100468.13;2079645;28;20145;-78
2022/10/15 04:53:51;;;;;;;157.73;46.28;;;;;;;10.83;100.00;100468.13;2072151;28;20054;-77
2022/10/15 04:54:53;;;;;;;151.88;45.13;;;;;;;10.84;100.00;100469.00;2071503;28;20054;-77
2022/10/15 04:56:19;;;;;;;159.65;46.55;;;;;;;10.82;100.00;100462.81;2078848;28;36047;-78
2022/10/15 04:57:21;;;;;;;144.93;43.67;;;;;;;10.81;100.00;100458.38;2082519;28;21950;-75
2022/10/15 04:58:23;;;;;;;148.95;44.78;;;;;;;10.82;100.00;100462.81;2087290;28;20048;-75
2022/10/15 04:59:24;;;;;;;161.30;43.38;;;;;;;10.82;100.00;100461.03;2079341;28;20822;-75
2022/10/15 05:00:45;;;;;;;140.50;41.72;;;;;;;10.80;100.00;100468.22;2087118;28;20167;-76
2022/10/15 05:02:07;;;;;;;153.82;44.40;;;;;;;10.79;100.00;100471.81;2086891;28;20046;-75